createdAt,value
2023-03-06T00:01:02.924Z,58.48
2023-03-06T00:03:30.450Z,59.29
2023-03-06T00:05:58.439Z,60.70
2023-03-06T00:08:28.260Z,62.03
2023-03-06T00:10:57.531Z,63.86
2023-03-06T00:13:26.615Z,64.82
2023-03-06T00:15:55.156Z,64.08
2023-03-06T00:18:23.449Z,62.96
2023-03-06T00:20:51.265Z,61.99
2023-03-06T00:23:20.543Z,61.08
2023-03-06T00:25:48.601Z,60.32
2023-03-06T00:28:18.069Z,59.61
2023-03-06T00:30:47.956Z,58.49
2023-03-06T00:33:16.205Z,59.36
2023-03-06T00:35:44.916Z,60.89
2023-03-06T00:38:14.580Z,62.24
2023-03-06T00:40:42.289Z,64.23
2023-03-06T00:43:11.952Z,64.13
2023-03-06T00:45:39.440Z,62.76
2023-03-06T00:48:11.013Z,61.37
2023-03-06T00:50:41.106Z,60.17
2023-03-06T00:53:11.579Z,58.86
2023-03-06T00:55:40.747Z,58.25
2023-03-06T00:58:07.991Z,59.50
2023-03-06T01:00:35.773Z,60.84
2023-03-06T01:03:03.501Z,61.96
2023-03-06T01:05:37.239Z,63.72
2023-03-06T01:08:08.486Z,64.49
2023-03-06T01:10:40.746Z,63.39
2023-03-06T01:13:09.895Z,62.08
2023-03-06T01:15:40.199Z,60.88
2023-03-06T01:18:09.063Z,59.89
2023-03-06T01:20:37.647Z,58.59
2023-03-06T01:23:05.942Z,58.78
2023-03-06T01:25:33.644Z,60.20
2023-03-06T01:28:01.864Z,61.59
2023-03-06T01:30:29.680Z,63.17
2023-03-06T01:32:59.026Z,64.77
2023-03-06T01:35:26.452Z,63.98
2023-03-06T01:37:54.526Z,62.64
2023-03-06T01:40:21.852Z,61.40
2023-03-06T01:42:52.219Z,60.34
2023-03-06T01:45:23.310Z,59.35
2023-03-06T01:47:53.272Z,58.56
2023-03-06T01:50:23.110Z,59.98
2023-03-06T01:52:58.211Z,61.58
2023-03-06T01:55:33.464Z,63.47
2023-03-06T01:58:07.811Z,65.37
2023-03-06T02:00:36.488Z,64.72
2023-03-06T02:03:15.410Z,63.48
2023-03-06T02:05:46.115Z,62.31
2023-03-06T02:08:19.549Z,61.15
2023-03-06T02:11:15.351Z,60.17
2023-03-06T02:13:44.534Z,59.28
2023-03-06T02:16:13.747Z,58.15
2023-03-06T02:18:43.869Z,59.37
2023-03-06T02:21:20.630Z,60.84
2023-03-06T02:23:56.407Z,62.18
2023-03-06T02:26:27.083Z,64.33
2023-03-06T02:28:57.423Z,64.50
2023-03-06T02:31:32.045Z,63.48
2023-03-06T02:34:16.927Z,62.24
2023-03-06T02:36:51.865Z,61.29
2023-03-06T02:39:24.464Z,60.55
2023-03-06T02:41:52.402Z,59.96
2023-03-06T02:44:23.272Z,59.41
2023-03-06T02:46:51.632Z,58.74
2023-03-06T02:49:20.787Z,60.20
2023-03-06T02:51:49.489Z,61.72
2023-03-06T02:54:19.963Z,63.41
2023-03-06T02:56:47.492Z,64.73
2023-03-06T02:59:16.959Z,63.73
2023-03-06T03:01:47.984Z,62.72
2023-03-06T03:04:16.469Z,61.43
2023-03-06T03:06:47.478Z,61.14
2023-03-06T03:09:17.066Z,60.25
2023-03-06T03:11:46.067Z,58.46
2023-03-06T03:14:16.546Z,58.94
2023-03-06T03:16:46.406Z,60.13
2023-03-06T03:19:15.229Z,62.05
2023-03-06T03:21:50.439Z,64.60
2023-03-06T03:24:27.589Z,63.71
2023-03-06T03:27:00.501Z,63.37
2023-03-06T03:29:38.872Z,62.60
2023-03-06T03:32:09.175Z,61.48
2023-03-06T03:34:41.687Z,61.31
2023-03-06T03:37:10.678Z,60.74
2023-03-06T03:39:45.656Z,59.58
2023-03-06T03:42:24.089Z,58.40
2023-03-06T03:45:15.256Z,59.93
2023-03-06T03:47:48.766Z,61.71
2023-03-06T03:50:37.447Z,63.48
2023-03-06T03:53:27.794Z,63.59
2023-03-06T03:56:01.627Z,63.39
2023-03-06T03:59:05.295Z,61.94
2023-03-06T04:01:46.660Z,61.33
2023-03-06T04:04:31.834Z,60.50
2023-03-06T04:07:23.635Z,59.51
2023-03-06T04:10:34.485Z,58.99
2023-03-06T04:14:03.747Z,60.62
2023-03-06T04:17:00.389Z,61.69
2023-03-06T04:19:40.140Z,64.95
2023-03-06T04:22:20.321Z,65.70
2023-03-06T04:25:27.938Z,64.62
2023-03-06T04:29:11.049Z,63.31
2023-03-06T04:32:10.630Z,61.98
2023-03-06T04:35:41.648Z,61.06
2023-03-06T04:39:00.042Z,60.19
2023-03-06T04:42:10.128Z,58.64
2023-03-06T04:45:31.074Z,59.70
2023-03-06T04:48:23.562Z,61.21
2023-03-06T04:51:47.606Z,62.80
2023-03-06T04:55:12.093Z,64.55
2023-03-06T04:58:22.532Z,62.93
2023-03-06T05:01:51.177Z,61.30
2023-03-06T05:05:31.993Z,59.95
2023-03-06T05:08:49.604Z,58.69
2023-03-06T05:12:04.685Z,60.17
2023-03-06T05:15:38.045Z,61.90
2023-03-06T05:19:13.122Z,64.66
2023-03-06T05:23:01.878Z,64.82
2023-03-06T05:27:15.804Z,63.18
2023-03-06T05:31:32.127Z,61.47
2023-03-06T05:35:56.750Z,59.95
2023-03-06T05:40:08.310Z,59.02
2023-03-06T05:44:00.582Z,61.36
2023-03-06T05:52:35.398Z,63.41
2023-03-06T06:01:12.115Z,60.10
2023-03-06T06:05:26.332Z,59.17
2023-03-06T06:09:23.228Z,61.30
2023-03-06T06:12:49.352Z,64.31
2023-03-06T06:15:44.186Z,63.62
2023-03-06T06:19:34.271Z,62.07
2023-03-06T06:22:38.874Z,60.65
2023-03-06T06:34:29.230Z,61.61
2023-03-06T06:38:09.327Z,64.52
2023-03-06T06:42:28.003Z,63.51
2023-03-06T07:03:04.781Z,63.88
2023-03-06T08:01:56.362Z,58.49
2023-03-06T08:06:11.674Z,60.57
2023-03-06T08:10:32.037Z,62.83
2023-03-06T08:30:16.167Z,60.56
2023-03-06T08:34:50.125Z,61.98
2023-03-06T08:39:23.953Z,62.71
2023-03-06T08:43:16.509Z,59.86
2023-03-06T08:47:22.838Z,58.21
2023-03-06T09:13:45.289Z,60.34
2023-03-06T09:17:57.349Z,63.22
2023-03-06T09:41:28.460Z,63.12
2023-03-06T09:49:59.892Z,58.64
2023-03-06T09:54:35.477Z,60.12
2023-03-06T09:58:48.790Z,61.68
2023-03-06T10:02:43.578Z,63.58
2023-03-06T10:06:35.371Z,61.52
2023-03-06T10:10:25.510Z,58.96
2023-03-06T10:14:09.731Z,57.77
2023-03-06T10:18:25.559Z,59.31
2023-03-06T10:22:35.324Z,60.62
2023-03-06T10:34:25.518Z,59.57
2023-03-06T10:38:10.919Z,58.24
2023-03-06T10:45:58.155Z,60.80
2023-03-06T10:49:46.079Z,61.47
2023-03-06T10:52:36.791Z,62.52
2023-03-06T10:55:42.754Z,63.79
2023-03-06T10:58:41.416Z,61.93
2023-03-06T11:01:27.620Z,59.48
2023-03-06T11:05:00.807Z,58.11
2023-03-06T11:08:36.160Z,59.28
2023-03-06T11:16:54.228Z,61.95
2023-03-06T11:28:32.301Z,58.87
2023-03-06T11:31:31.943Z,58.98
2023-03-06T11:34:40.691Z,59.84
2023-03-06T11:37:16.300Z,61.10
2023-03-06T11:40:32.348Z,61.70
2023-03-06T11:43:17.701Z,62.34
2023-03-06T11:45:57.773Z,63.70
2023-03-06T11:49:15.763Z,63.11
2023-03-06T11:51:54.154Z,61.29
2023-03-06T11:54:23.747Z,59.41
2023-03-06T11:57:39.348Z,58.03
2023-03-06T12:01:19.011Z,59.75
2023-03-06T12:05:19.824Z,61.60
2023-03-06T12:09:34.679Z,64.08
2023-03-06T12:12:39.916Z,63.49
2023-03-06T12:16:45.009Z,60.76
2023-03-06T12:20:09.798Z,59.45
2023-03-06T12:24:33.243Z,58.68
2023-03-06T12:28:13.677Z,60.07
2023-03-06T12:31:56.028Z,61.86
2023-03-06T12:35:55.877Z,63.55
2023-03-06T12:39:46.577Z,62.22
2023-03-06T12:43:40.160Z,60.10
2023-03-06T12:48:04.353Z,58.34
2023-03-06T13:00:23.817Z,62.90
2023-03-06T13:03:29.738Z,59.84
2023-03-06T13:49:46.497Z,60.13
2023-03-06T13:54:07.754Z,58.70
2023-03-06T14:13:45.234Z,58.78
2023-03-06T14:17:14.562Z,60.21
2023-03-06T14:28:30.063Z,61.70
2023-03-06T14:46:47.375Z,62.44
2023-03-06T14:50:58.770Z,64.47
2023-03-06T15:27:34.297Z,60.46
2023-03-06T15:32:03.819Z,58.54
2023-03-06T16:22:16.821Z,63.69
2023-03-06T16:30:11.059Z,60.78
2023-03-06T16:34:06.668Z,59.27
2023-03-06T16:38:01.024Z,58.66
2023-03-06T16:41:50.249Z,60.09
2023-03-06T16:55:19.059Z,62.98
2023-03-06T17:03:09.055Z,60.15
2023-03-06T17:11:45.416Z,60.01
2023-03-06T17:16:05.663Z,61.39
2023-03-06T17:20:40.415Z,64.15
2023-03-06T17:24:32.480Z,63.59
2023-03-06T17:28:18.665Z,62.53
2023-03-06T17:32:15.281Z,61.32
2023-03-06T17:36:12.705Z,60.27
2023-03-06T17:39:46.344Z,59.12
2023-03-06T17:43:44.776Z,58.81
2023-03-06T17:47:35.549Z,60.57
2023-03-06T17:50:40.513Z,62.26
2023-03-06T17:54:24.617Z,64.57
2023-03-06T17:58:38.343Z,63.88
2023-03-06T18:02:25.235Z,62.50
2023-03-06T18:05:55.047Z,61.30
2023-03-06T18:09:47.085Z,60.25
2023-03-06T18:13:39.663Z,59.43
2023-03-06T18:17:58.446Z,58.76
2023-03-06T18:22:33.795Z,60.62
2023-03-06T18:30:19.647Z,65.13
2023-03-06T18:34:34.517Z,64.10
2023-03-06T18:43:12.995Z,61.17
2023-03-06T18:47:28.297Z,59.87
2023-03-06T19:00:38.197Z,62.14
2023-03-06T19:17:04.907Z,62.21
2023-03-06T19:20:52.261Z,61.18
2023-03-06T19:25:02.724Z,60.35
2023-03-06T19:29:03.460Z,59.41
2023-03-06T19:34:03.876Z,59.24
2023-03-06T19:38:00.545Z,61.14
2023-03-06T19:42:41.095Z,63.31
2023-03-06T19:46:58.662Z,64.88
2023-03-06T19:51:30.335Z,64.00
2023-03-06T19:55:19.760Z,63.04
2023-03-06T19:59:00.856Z,62.26
2023-03-06T20:02:13.312Z,61.57
2023-03-06T20:06:50.082Z,61.10
2023-03-06T20:10:56.562Z,60.47
2023-03-06T20:14:26.918Z,59.77
2023-03-06T20:18:45.596Z,58.90
2023-03-06T20:22:36.541Z,60.52
2023-03-06T20:25:59.563Z,62.24
2023-03-06T20:30:22.229Z,64.48
2023-03-06T20:34:42.184Z,64.36
2023-03-06T20:38:56.026Z,63.44
2023-03-06T20:42:49.115Z,62.42
2023-03-06T20:46:02.835Z,61.52
2023-03-06T20:49:55.441Z,60.89
2023-03-06T20:53:46.310Z,60.30
2023-03-06T20:57:36.436Z,59.66
2023-03-06T21:01:08.020Z,58.84
2023-03-06T21:04:21.275Z,60.24
2023-03-06T21:07:40.704Z,61.86
2023-03-06T21:11:28.050Z,64.55
2023-03-06T21:14:59.804Z,64.53
2023-03-06T21:18:49.529Z,63.61
2023-03-06T21:21:48.050Z,62.76
2023-03-06T21:25:23.581Z,61.85
2023-03-06T21:29:57.575Z,60.89
2023-03-06T21:32:32.054Z,60.43
2023-03-06T21:35:33.532Z,59.87
2023-03-06T21:39:02.076Z,59.24
2023-03-06T21:42:18.113Z,59.15
2023-03-06T21:45:34.722Z,60.93
2023-03-06T21:48:27.690Z,62.39
2023-03-06T21:51:29.242Z,65.17
2023-03-06T21:54:27.282Z,65.14
2023-03-06T21:57:43.576Z,64.04
2023-03-06T22:00:49.948Z,62.55
2023-03-06T22:04:19.648Z,62.44
2023-03-06T22:07:52.399Z,61.18
2023-03-06T22:10:51.247Z,60.71
2023-03-06T22:14:49.257Z,60.20
2023-03-06T22:18:21.538Z,58.81
2023-03-06T22:21:23.865Z,60.24
2023-03-06T22:24:19.237Z,62.14
2023-03-06T22:27:27.011Z,63.93
2023-03-06T22:30:42.032Z,64.43
2023-03-06T22:33:22.955Z,63.54
2023-03-06T22:37:08.514Z,62.48
2023-03-06T22:40:48.711Z,61.49
2023-03-06T22:44:00.664Z,60.57
2023-03-06T22:47:38.688Z,59.01
2023-03-06T22:50:30.035Z,59.67
2023-03-06T22:54:50.412Z,61.77
2023-03-06T22:57:25.237Z,64.46
2023-03-06T23:00:56.033Z,64.61
2023-03-06T23:04:29.218Z,62.98
2023-03-06T23:07:45.445Z,61.14
2023-03-06T23:10:44.754Z,61.46
2023-03-06T23:13:42.369Z,60.82
2023-03-06T23:17:21.642Z,60.40
2023-03-06T23:21:00.666Z,59.93
2023-03-06T23:24:21.567Z,58.96
2023-03-06T23:27:19.831Z,58.35
2023-03-06T23:30:19.950Z,60.72
2023-03-06T23:34:24.528Z,62.54
2023-03-06T23:38:13.628Z,63.82
2023-03-06T23:41:29.033Z,63.35
2023-03-06T23:44:52.856Z,61.14
2023-03-06T23:47:54.080Z,60.24
2023-03-06T23:51:39.498Z,59.21
2023-03-06T23:56:08.255Z,60.56
2023-03-06T23:59:13.065Z,62.68
